createdAt,value
2022-10-19T00:01:36.916Z,78.91
2022-10-19T00:04:07.839Z,78.92
2022-10-19T00:06:36.731Z,79.01
2022-10-19T00:09:15.105Z,78.72
2022-10-19T00:11:43.566Z,78.80
2022-10-19T00:14:17.099Z,78.90
2022-10-19T00:16:44.388Z,78.74
2022-10-19T00:19:20.197Z,78.63
2022-10-19T00:21:47.673Z,78.79
2022-10-19T00:24:14.675Z,78.92
2022-10-19T00:26:41.370Z,78.76
2022-10-19T00:29:08.491Z,78.45
2022-10-19T00:31:35.163Z,78.47
2022-10-19T00:34:01.861Z,78.35
2022-10-19T00:36:34.092Z,78.37
2022-10-19T00:39:01.719Z,78.75
2022-10-19T00:41:30.969Z,78.43
2022-10-19T00:44:08.284Z,78.61
2022-10-19T00:46:37.379Z,78.48
2022-10-19T00:49:09.983Z,78.49
2022-10-19T00:51:40.176Z,78.58
2022-10-19T00:54:07.780Z,78.67
2022-10-19T00:56:35.431Z,78.34
2022-10-19T00:59:05.824Z,78.38
2022-10-19T01:01:34.012Z,78.07
2022-10-19T01:04:01.718Z,78.23
2022-10-19T01:06:28.766Z,78.08
2022-10-19T01:08:55.441Z,78.14
2022-10-19T01:11:43.578Z,78.26
2022-10-19T01:14:29.124Z,78.17
2022-10-19T01:17:29.718Z,78.11
2022-10-19T01:20:08.408Z,78.13
2022-10-19T01:22:59.756Z,77.97
2022-10-19T01:25:48.212Z,78.02
2022-10-19T01:28:42.958Z,78.10
2022-10-19T01:31:30.295Z,78.24
2022-10-19T01:34:23.471Z,78.00
2022-10-19T01:37:04.768Z,77.84
2022-10-19T01:39:39.778Z,77.91
2022-10-19T01:42:29.466Z,77.87
2022-10-19T01:45:16.982Z,78.03
2022-10-19T01:48:03.324Z,78.10
2022-10-19T01:50:54.824Z,78.11
2022-10-19T01:53:21.948Z,78.06
2022-10-19T01:55:51.557Z,77.87
2022-10-19T01:58:23.777Z,77.37
2022-10-19T02:00:51.712Z,77.45
2022-10-19T02:03:18.620Z,77.46
2022-10-19T02:05:47.326Z,77.40
2022-10-19T02:08:18.414Z,77.42
2022-10-19T02:10:45.423Z,77.61
2022-10-19T02:13:14.362Z,77.17
2022-10-19T02:15:44.219Z,77.15
2022-10-19T02:18:13.587Z,77.36
2022-10-19T02:20:40.385Z,76.96
2022-10-19T02:23:07.655Z,77.13
2022-10-19T02:25:34.666Z,77.52
2022-10-19T02:28:02.651Z,77.37
2022-10-19T02:30:29.333Z,77.37
2022-10-19T02:32:56.093Z,77.66
2022-10-19T02:35:23.182Z,77.60
2022-10-19T02:37:49.976Z,77.84
2022-10-19T02:40:16.720Z,77.54
2022-10-19T02:42:49.180Z,77.66
2022-10-19T02:45:22.722Z,77.57
2022-10-19T02:48:02.790Z,77.55
2022-10-19T02:50:29.582Z,77.72
2022-10-19T02:52:58.524Z,77.42
2022-10-19T02:55:25.347Z,77.44
2022-10-19T02:57:52.030Z,77.51
2022-10-19T03:00:18.745Z,77.58
2022-10-19T03:02:45.455Z,77.25
2022-10-19T03:05:12.119Z,77.35
2022-10-19T03:07:42.460Z,77.55
2022-10-19T03:10:09.660Z,77.54
2022-10-19T03:12:36.347Z,77.68
2022-10-19T03:15:03.623Z,77.69
2022-10-19T03:17:30.296Z,77.54
2022-10-19T03:19:56.952Z,77.84
2022-10-19T03:22:23.656Z,77.52
2022-10-19T03:24:50.538Z,77.75
2022-10-19T03:27:17.342Z,77.85
2022-10-19T03:29:43.995Z,77.90
2022-10-19T03:32:10.823Z,77.94
2022-10-19T03:34:37.453Z,77.66
2022-10-19T03:37:04.144Z,77.87
2022-10-19T03:39:30.969Z,78.06
2022-10-19T03:41:57.608Z,77.91
2022-10-19T03:44:24.280Z,78.00
2022-10-19T03:46:51.008Z,77.81
2022-10-19T03:49:17.711Z,77.78
2022-10-19T03:51:44.348Z,77.80
2022-10-19T03:54:15.657Z,78.07
2022-10-19T03:56:43.023Z,77.75
2022-10-19T03:59:13.048Z,77.95
2022-10-19T04:01:41.593Z,77.63
2022-10-19T04:04:12.802Z,77.68
2022-10-19T04:06:40.868Z,77.72
2022-10-19T04:09:09.094Z,77.59
2022-10-19T04:11:36.153Z,77.57
2022-10-19T04:14:02.904Z,77.32
2022-10-19T04:16:30.369Z,77.30
2022-10-19T04:18:57.618Z,77.13
2022-10-19T04:21:31.798Z,77.33
2022-10-19T04:24:10.691Z,76.91
2022-10-19T04:26:42.732Z,77.29
2022-10-19T04:29:10.122Z,76.90
2022-10-19T04:31:37.294Z,76.82
2022-10-19T04:34:04.202Z,76.84
2022-10-19T04:36:30.922Z,76.68
2022-10-19T04:38:57.626Z,76.48
2022-10-19T04:41:24.274Z,76.47
2022-10-19T04:43:57.829Z,76.70
2022-10-19T04:46:24.996Z,76.60
2022-10-19T04:48:52.018Z,76.75
2022-10-19T04:51:19.921Z,76.48
2022-10-19T04:53:47.131Z,76.84
2022-10-19T04:56:35.355Z,77.12
2022-10-19T04:59:02.191Z,77.13
2022-10-19T05:01:30.435Z,76.88
2022-10-19T05:03:59.391Z,77.11
2022-10-19T05:06:26.686Z,77.13
2022-10-19T05:08:53.811Z,77.50
2022-10-19T05:11:20.805Z,77.31
2022-10-19T05:13:48.071Z,77.38
2022-10-19T05:16:16.934Z,77.47
2022-10-19T05:18:47.366Z,77.10
2022-10-19T05:21:14.498Z,77.37
2022-10-19T05:23:42.284Z,77.07
2022-10-19T05:26:12.973Z,77.30
2022-10-19T05:28:39.847Z,77.12
2022-10-19T05:31:17.865Z,77.30
2022-10-19T05:33:45.350Z,76.85
2022-10-19T05:36:16.413Z,77.09
2022-10-19T05:38:43.911Z,77.25
2022-10-19T05:41:10.925Z,77.26
2022-10-19T05:43:37.746Z,77.37
2022-10-19T05:46:09.874Z,77.18
2022-10-19T05:48:36.729Z,77.15
2022-10-19T05:51:05.467Z,77.34
2022-10-19T05:53:32.942Z,77.15
2022-10-19T05:55:59.709Z,77.19
2022-10-19T05:58:26.443Z,77.13
2022-10-19T06:00:58.657Z,77.20
2022-10-19T06:03:25.825Z,77.53
2022-10-19T06:05:53.325Z,77.66
2022-10-19T06:08:21.163Z,77.70
2022-10-19T06:10:48.389Z,77.96
2022-10-19T06:13:16.358Z,78.04
2022-10-19T06:15:43.371Z,77.89
2022-10-19T06:18:12.080Z,78.03
2022-10-19T06:20:40.542Z,78.27
2022-10-19T06:23:08.020Z,78.21
2022-10-19T06:25:36.069Z,78.31
2022-10-19T06:28:03.583Z,78.15
2022-10-19T06:30:30.413Z,78.51
2022-10-19T06:32:58.931Z,78.54
2022-10-19T06:35:25.852Z,78.33
2022-10-19T06:37:52.509Z,78.32
2022-10-19T06:40:19.305Z,78.26
2022-10-19T06:42:46.048Z,78.50
2022-10-19T06:45:12.815Z,78.33
2022-10-19T06:47:39.638Z,78.45
2022-10-19T06:50:09.725Z,78.46
2022-10-19T06:52:36.876Z,78.60
2022-10-19T06:55:04.067Z,78.84
2022-10-19T06:57:30.997Z,78.46
2022-10-19T06:59:57.841Z,78.72
2022-10-19T07:02:24.746Z,78.71
2022-10-19T07:04:51.514Z,78.68
2022-10-19T07:07:18.294Z,78.49
2022-10-19T07:09:45.048Z,78.61
2022-10-19T07:12:12.013Z,78.37
2022-10-19T07:14:39.839Z,78.19
2022-10-19T07:17:07.144Z,78.22
2022-10-19T07:19:34.006Z,78.18
2022-10-19T07:22:00.867Z,78.60
2022-10-19T07:24:27.895Z,78.61
2022-10-19T07:26:54.712Z,78.45
2022-10-19T07:29:21.616Z,78.48
2022-10-19T07:31:48.575Z,78.25
2022-10-19T07:34:15.610Z,78.76
2022-10-19T07:36:45.475Z,78.73
2022-10-19T07:39:12.829Z,78.67
2022-10-19T07:41:39.999Z,78.61
2022-10-19T07:44:07.511Z,78.93
2022-10-19T07:46:38.816Z,78.62
2022-10-19T07:49:09.812Z,78.16
2022-10-19T07:51:40.126Z,78.36
2022-10-19T07:54:06.926Z,78.09
2022-10-19T07:56:35.007Z,78.24
2022-10-19T07:59:02.886Z,78.52
2022-10-19T08:01:31.831Z,78.20
2022-10-19T08:06:46.659Z,77.53
2022-10-19T08:09:27.761Z,77.62
2022-10-19T08:12:00.098Z,77.48
2022-10-19T08:14:26.972Z,77.46
2022-10-19T08:16:53.692Z,77.01
2022-10-19T08:19:20.359Z,76.70
2022-10-19T08:21:47.182Z,76.51
2022-10-19T08:24:15.595Z,76.35
2022-10-19T08:26:42.592Z,76.21
2022-10-19T08:29:15.040Z,75.82
2022-10-19T08:31:42.435Z,75.52
2022-10-19T08:34:09.188Z,75.19
2022-10-19T08:36:38.527Z,75.30
2022-10-19T08:39:07.587Z,75.12
2022-10-19T08:41:40.495Z,74.94
2022-10-19T08:44:25.958Z,74.80
2022-10-19T08:47:40.550Z,74.96
2022-10-19T08:50:19.797Z,75.44
2022-10-19T08:52:51.591Z,75.65
2022-10-19T08:55:23.333Z,75.48
2022-10-19T08:58:27.690Z,75.16
2022-10-19T09:01:07.667Z,75.07
2022-10-19T09:03:56.735Z,75.11
2022-10-19T09:06:30.584Z,74.76
2022-10-19T09:08:57.854Z,74.77
2022-10-19T09:11:27.595Z,74.86
2022-10-19T09:14:05.384Z,73.68
2022-10-19T09:16:33.244Z,73.20
2022-10-19T09:18:59.991Z,72.37
2022-10-19T09:21:46.112Z,72.71
2022-10-19T09:24:39.272Z,73.17
2022-10-19T09:27:07.593Z,72.94
2022-10-19T09:29:41.664Z,72.30
2022-10-19T09:32:38.774Z,72.26
2022-10-19T09:35:08.405Z,71.41
2022-10-19T09:37:40.598Z,69.13
2022-10-19T09:40:23.977Z,67.83
2022-10-19T09:43:03.393Z,68.50
2022-10-19T09:45:50.486Z,66.42
2022-10-19T09:48:23.903Z,64.95
2022-10-19T09:50:59.727Z,65.50
2022-10-19T09:53:27.093Z,64.41
2022-10-19T09:55:59.786Z,64.67
2022-10-19T09:58:32.090Z,63.18
2022-10-19T10:01:00.690Z,61.46
2022-10-19T10:03:36.239Z,61.68
2022-10-19T10:06:06.369Z,61.07
2022-10-19T10:08:36.263Z,62.97
2022-10-19T10:11:14.779Z,63.53
2022-10-19T10:13:44.215Z,63.48
2022-10-19T10:16:15.744Z,63.60
2022-10-19T10:19:08.488Z,63.83
2022-10-19T10:21:51.133Z,65.00
2022-10-19T10:24:19.583Z,64.55
2022-10-19T10:26:52.156Z,63.75
2022-10-19T10:29:25.863Z,63.49
2022-10-19T10:32:01.852Z,64.58
2022-10-19T10:34:59.949Z,65.00
2022-10-19T10:37:38.480Z,66.59
2022-10-19T10:40:06.216Z,66.56
2022-10-19T10:42:37.479Z,66.76
2022-10-19T10:45:05.203Z,67.08
2022-10-19T10:47:32.192Z,66.36
2022-10-19T10:50:03.025Z,65.35
2022-10-19T10:52:31.714Z,64.30
2022-10-19T10:55:17.981Z,64.32
2022-10-19T10:57:48.301Z,64.98
2022-10-19T11:00:20.552Z,65.14
2022-10-19T11:03:12.284Z,62.62
2022-10-19T11:05:41.322Z,61.44
2022-10-19T11:08:41.961Z,59.98
2022-10-19T11:11:24.632Z,59.00
2022-10-19T11:14:19.257Z,59.12
2022-10-19T11:16:48.154Z,58.23
2022-10-19T11:19:22.539Z,59.23
2022-10-19T11:22:31.179Z,59.67
2022-10-19T11:25:03.903Z,59.43
2022-10-19T11:27:55.671Z,60.34
2022-10-19T11:30:23.968Z,61.29
2022-10-19T11:33:12.504Z,60.59
2022-10-19T11:35:47.781Z,58.69
2022-10-19T11:38:22.705Z,59.20
2022-10-19T11:41:20.950Z,59.55
2022-10-19T11:43:50.784Z,61.51
2022-10-19T11:46:26.408Z,61.93
2022-10-19T11:49:03.291Z,62.01
2022-10-19T11:51:52.129Z,61.26
2022-10-19T11:54:36.454Z,62.25
2022-10-19T11:57:09.463Z,59.81
2022-10-19T11:59:53.641Z,58.81
2022-10-19T12:02:48.756Z,58.79
2022-10-19T12:05:46.552Z,56.91
2022-10-19T12:08:53.754Z,58.27
2022-10-19T12:11:23.772Z,58.04
2022-10-19T12:14:09.094Z,56.45
2022-10-19T12:16:42.848Z,57.58
2022-10-19T12:19:17.890Z,57.88
2022-10-19T12:21:44.933Z,58.72
2022-10-19T12:24:16.727Z,58.74
2022-10-19T12:26:44.863Z,57.20
2022-10-19T12:29:22.394Z,57.66
2022-10-19T12:31:50.338Z,56.77
2022-10-19T12:34:28.944Z,58.45
2022-10-19T12:37:33.106Z,58.79
2022-10-19T12:40:19.980Z,58.80
2022-10-19T12:42:52.885Z,57.35
2022-10-19T12:45:35.015Z,56.43
2022-10-19T12:48:19.049Z,53.40
2022-10-19T12:50:48.870Z,53.18
2022-10-19T12:53:40.982Z,53.41
2022-10-19T12:56:19.194Z,55.66
2022-10-19T12:58:50.980Z,56.93
2022-10-19T13:01:35.822Z,56.55
2022-10-19T13:04:34.885Z,56.34
2022-10-19T13:07:04.123Z,57.02
2022-10-19T13:09:46.017Z,56.29
2022-10-19T13:12:19.592Z,56.34
2022-10-19T13:14:51.216Z,56.17
2022-10-19T13:17:44.321Z,56.03
2022-10-19T13:20:14.245Z,55.59
2022-10-19T13:22:41.740Z,55.32
2022-10-19T13:25:28.211Z,53.75
2022-10-19T13:28:02.491Z,54.95
2022-10-19T13:30:38.418Z,53.14
2022-10-19T13:33:29.756Z,54.13
2022-10-19T13:35:59.524Z,54.38
2022-10-19T13:38:39.360Z,53.08
2022-10-19T13:41:14.964Z,54.28
2022-10-19T13:43:50.641Z,54.75
2022-10-19T13:46:22.047Z,54.76
2022-10-19T13:49:07.185Z,54.16
2022-10-19T13:51:56.154Z,54.63
2022-10-19T13:54:47.214Z,53.26
2022-10-19T13:57:35.977Z,52.33
2022-10-19T14:00:25.200Z,53.38
2022-10-19T14:03:10.756Z,54.08
2022-10-19T14:06:06.546Z,54.86
2022-10-19T14:08:53.718Z,55.22
2022-10-19T14:11:25.743Z,56.53
2022-10-19T14:14:10.956Z,57.83
2022-10-19T14:16:51.870Z,58.66
2022-10-19T14:19:27.425Z,59.61
2022-10-19T14:22:01.154Z,60.02
2022-10-19T14:24:35.444Z,59.65
2022-10-19T14:27:06.768Z,59.62
2022-10-19T14:29:44.030Z,60.37
2022-10-19T14:32:11.622Z,60.04
2022-10-19T14:34:42.786Z,61.15
2022-10-19T14:37:42.545Z,62.04
2022-10-19T14:40:33.038Z,61.78
2022-10-19T14:43:01.585Z,61.57
2022-10-19T14:45:31.138Z,62.44
2022-10-19T14:48:02.647Z,63.41
2022-10-19T14:50:39.839Z,63.38
2022-10-19T14:53:42.184Z,64.55
2022-10-19T14:56:44.402Z,64.75
2022-10-19T15:02:34.600Z,65.48
2022-10-19T15:05:02.739Z,65.99
2022-10-19T15:07:40.212Z,65.94
2022-10-19T15:10:09.642Z,65.96
2022-10-19T15:12:40.777Z,66.56
2022-10-19T15:15:15.343Z,66.35
2022-10-19T15:17:51.625Z,66.54
2022-10-19T15:20:54.917Z,66.24
2022-10-19T15:23:29.667Z,67.01
2022-10-19T15:26:00.979Z,67.03
2022-10-19T15:28:39.158Z,67.04
2022-10-19T15:31:28.594Z,67.15
2022-10-19T15:34:00.671Z,67.29
2022-10-19T15:36:28.913Z,67.37
2022-10-19T15:39:11.162Z,67.34
2022-10-19T15:41:45.514Z,67.34
2022-10-19T15:44:31.629Z,67.38
2022-10-19T15:47:16.695Z,68.07
2022-10-19T15:49:43.463Z,67.81
2022-10-19T15:52:20.120Z,68.04
2022-10-19T15:54:51.288Z,68.13
2022-10-19T15:57:30.424Z,68.13
2022-10-19T15:59:59.230Z,67.79
2022-10-19T16:02:26.374Z,68.19
2022-10-19T16:04:54.270Z,68.37
2022-10-19T16:07:30.223Z,68.58
2022-10-19T16:10:00.271Z,68.16
2022-10-19T16:12:28.521Z,67.94
2022-10-19T16:14:55.361Z,68.10
2022-10-19T16:17:22.297Z,68.11
2022-10-19T16:19:50.028Z,68.33
2022-10-19T16:22:17.058Z,68.38
2022-10-19T16:24:44.795Z,68.15
2022-10-19T16:27:15.410Z,68.10
2022-10-19T16:29:43.533Z,68.16
2022-10-19T16:32:13.070Z,68.22
2022-10-19T16:34:39.981Z,68.24
2022-10-19T16:37:07.801Z,68.42
2022-10-19T16:39:34.811Z,68.36
2022-10-19T16:42:01.990Z,68.36
2022-10-19T16:44:28.795Z,68.13
2022-10-19T16:46:58.966Z,68.47
2022-10-19T16:49:25.799Z,68.23
2022-10-19T16:51:56.280Z,68.42
2022-10-19T16:54:24.604Z,68.31
2022-10-19T16:56:51.307Z,68.78
2022-10-19T16:59:19.236Z,69.12
2022-10-19T17:01:46.491Z,69.27
2022-10-19T17:04:15.192Z,69.01
2022-10-19T17:06:42.246Z,69.32
2022-10-19T17:11:56.527Z,69.18
2022-10-19T17:14:23.195Z,69.39
2022-10-19T17:16:49.961Z,69.14
2022-10-19T17:19:16.850Z,69.15
2022-10-19T17:21:43.624Z,69.07
2022-10-19T17:24:21.607Z,68.96
2022-10-19T17:26:52.019Z,69.01
2022-10-19T17:29:20.099Z,68.95
2022-10-19T17:31:48.478Z,68.48
2022-10-19T17:34:16.151Z,68.43
2022-10-19T17:36:44.893Z,68.27
2022-10-19T17:39:15.417Z,68.26
2022-10-19T17:41:42.194Z,68.42
2022-10-19T17:44:09.133Z,68.67
2022-10-19T17:46:35.884Z,68.50
2022-10-19T17:49:03.583Z,68.53
2022-10-19T17:51:32.324Z,68.67
2022-10-19T17:54:04.291Z,68.86
2022-10-19T17:56:31.796Z,68.73
2022-10-19T17:59:00.134Z,68.66
2022-10-19T18:01:27.128Z,68.64
2022-10-19T18:03:54.241Z,69.02
2022-10-19T18:06:30.600Z,68.96
2022-10-19T18:08:58.807Z,68.93
2022-10-19T18:11:31.216Z,68.81
2022-10-19T18:14:00.790Z,68.68
2022-10-19T18:16:30.896Z,68.64
2022-10-19T18:18:58.964Z,68.83
2022-10-19T18:21:30.344Z,69.06
2022-10-19T18:23:58.931Z,69.15
2022-10-19T18:26:29.404Z,68.92
2022-10-19T18:29:00.669Z,69.18
2022-10-19T18:31:30.294Z,68.71
2022-10-19T18:34:02.332Z,68.85
2022-10-19T18:36:29.789Z,68.85
2022-10-19T18:38:59.024Z,68.61
2022-10-19T18:41:26.397Z,68.41
2022-10-19T18:43:55.438Z,68.57
2022-10-19T18:46:23.360Z,68.80
2022-10-19T18:48:50.391Z,69.05
2022-10-19T18:51:18.152Z,69.09
2022-10-19T18:53:45.697Z,69.15
2022-10-19T18:56:14.004Z,69.30
2022-10-19T18:58:41.257Z,69.22
2022-10-19T19:01:10.406Z,69.21
2022-10-19T19:03:38.625Z,68.98
2022-10-19T19:06:12.146Z,68.92
2022-10-19T19:08:39.753Z,68.64
2022-10-19T19:11:15.475Z,68.63
2022-10-19T19:14:10.932Z,68.89
2022-10-19T19:16:40.943Z,68.75
2022-10-19T19:19:08.818Z,68.62
2022-10-19T19:21:36.734Z,68.67
2022-10-19T19:24:06.111Z,68.77
2022-10-19T19:26:35.619Z,68.48
2022-10-19T19:29:04.015Z,68.55
2022-10-19T19:31:30.914Z,69.05
2022-10-19T19:34:00.035Z,69.20
2022-10-19T19:36:30.079Z,69.12
2022-10-19T19:38:57.651Z,68.86
2022-10-19T19:41:24.430Z,69.17
2022-10-19T19:43:51.369Z,68.74
2022-10-19T19:46:19.656Z,68.44
2022-10-19T19:48:47.694Z,68.72
2022-10-19T19:51:21.142Z,68.63
2022-10-19T19:53:48.533Z,68.85
2022-10-19T19:56:15.980Z,69.18
2022-10-19T19:58:46.156Z,69.09
2022-10-19T20:01:15.733Z,68.96
2022-10-19T20:03:43.586Z,68.86
2022-10-19T20:06:10.868Z,68.89
2022-10-19T20:08:38.342Z,69.11
2022-10-19T20:11:11.373Z,68.95
2022-10-19T20:13:38.424Z,68.77
2022-10-19T20:16:16.634Z,68.85
2022-10-19T20:18:49.280Z,68.87
2022-10-19T20:21:17.889Z,68.73
2022-10-19T20:23:45.881Z,68.80
2022-10-19T20:26:20.078Z,69.04
2022-10-19T20:28:47.112Z,69.13
2022-10-19T20:31:14.056Z,69.29
2022-10-19T20:33:43.028Z,69.48
2022-10-19T20:36:13.623Z,69.40
2022-10-19T20:38:41.127Z,69.45
2022-10-19T20:41:09.822Z,69.60
2022-10-19T20:43:37.532Z,69.26
2022-10-19T20:46:05.794Z,69.20
2022-10-19T20:48:33.733Z,69.18
2022-10-19T20:51:13.964Z,69.32
2022-10-19T20:53:41.391Z,69.29
2022-10-19T20:56:10.585Z,69.24
2022-10-19T20:58:42.905Z,69.48
2022-10-19T21:01:18.156Z,69.85
2022-10-19T21:03:52.862Z,69.64
2022-10-19T21:06:21.192Z,69.79
2022-10-19T21:08:48.164Z,69.56
2022-10-19T21:11:17.849Z,69.50
2022-10-19T21:13:45.255Z,69.41
2022-10-19T21:16:14.600Z,69.75
2022-10-19T21:18:42.019Z,69.56
2022-10-19T21:21:14.954Z,69.74
2022-10-19T21:23:42.935Z,69.58
2022-10-19T21:26:09.757Z,69.44
2022-10-19T21:28:36.574Z,69.65
2022-10-19T21:31:08.435Z,69.77
2022-10-19T21:33:35.995Z,69.76
2022-10-19T21:36:08.416Z,70.19
2022-10-19T21:38:35.450Z,70.39
2022-10-19T21:41:07.986Z,70.22
2022-10-19T21:43:35.075Z,69.99
2022-10-19T21:46:02.929Z,70.17
2022-10-19T21:48:30.510Z,70.40
2022-10-19T21:50:57.294Z,70.27
2022-10-19T21:53:24.039Z,70.16
2022-10-19T21:55:52.171Z,70.10
2022-10-19T21:58:21.867Z,70.01
2022-10-19T22:00:48.600Z,70.26
2022-10-19T22:03:17.948Z,70.17
2022-10-19T22:05:51.770Z,70.18
2022-10-19T22:08:18.506Z,70.43
2022-10-19T22:10:47.315Z,70.15
2022-10-19T22:13:13.990Z,70.37
2022-10-19T22:15:41.245Z,70.75
2022-10-19T22:18:08.595Z,70.81
2022-10-19T22:20:36.615Z,70.71
2022-10-19T22:23:03.919Z,70.67
2022-10-19T22:25:31.259Z,70.77
2022-10-19T22:27:58.100Z,70.64
2022-10-19T22:30:25.069Z,70.51
2022-10-19T22:32:51.766Z,70.43
2022-10-19T22:35:18.435Z,70.63
2022-10-19T22:37:45.109Z,70.61
2022-10-19T22:40:12.138Z,70.71
2022-10-19T22:42:38.929Z,70.67
2022-10-19T22:45:06.370Z,70.53
2022-10-19T22:47:33.152Z,70.43
2022-10-19T22:49:59.877Z,70.56
2022-10-19T22:52:26.635Z,70.49
2022-10-19T22:54:53.621Z,70.32
2022-10-19T22:57:20.310Z,70.61
2022-10-19T22:59:47.025Z,70.66
2022-10-19T23:02:13.781Z,70.86
2022-10-19T23:04:40.483Z,70.88
2022-10-19T23:07:07.265Z,71.08
2022-10-19T23:09:34.174Z,70.87
2022-10-19T23:12:00.888Z,70.73
2022-10-19T23:14:27.599Z,70.78
2022-10-19T23:16:54.308Z,70.66
2022-10-19T23:19:21.135Z,70.84
2022-10-19T23:21:47.872Z,70.91
2022-10-19T23:24:17.590Z,70.69
2022-10-19T23:26:46.103Z,70.58
2022-10-19T23:29:12.857Z,70.54
2022-10-19T23:31:39.593Z,70.52
2022-10-19T23:34:06.318Z,70.30
2022-10-19T23:36:33.066Z,70.59
2022-10-19T23:38:59.816Z,70.47
2022-10-19T23:41:26.731Z,70.19
2022-10-19T23:43:53.378Z,70.37
2022-10-19T23:46:20.158Z,70.58
2022-10-19T23:48:46.920Z,70.23
2022-10-19T23:51:21.021Z,70.11
2022-10-19T23:53:49.984Z,70.17
2022-10-19T23:56:19.404Z,70.49
2022-10-19T23:58:46.224Z,70.21
